Hovedside
METAR-TAF:

METAR-TAF

Lufthavner :

Flystasjon

Ämari, Estland

breddegrad: 59-15-44N, lengdegrad: 24-13-07E, høyde over havet: 20 m

Gjeldene værobservasjon

Denne rapporten ble laget for 2 timer og 28 minutter siden, klokken 16:50 UTC
Flau vind
Temperatur -15°C
Luftfuktighet 92%
Trykk 1017 hPa
Sikt 10 km eller mer
Spredte skyer i en høyde av 900 ft

METAR: EEEI 211650Z 00000KT 9999 SCT009 M15/M16 Q1017 R24/450195 NOSIG

Tid: 21:18 (19:18 UTC)

Varsel

Denne rapporten ble laget for 1 time og 48 minutter siden, klokken 17:30 UTC
Varsel gyldig fra 21. klokken 18 UTC til 22. klokken 18 UTC
Vind 2 kt fra skiftende retning
Sikt 10 km eller mer
Spredte skyer i en høyde av 900 ft
Brutte skyer i en høyde av 2500 ft
Blir
fra 22. klokken 00 UTC til 22. klokken 02 UTC
Vind 6 kt fra Sør

TAF: EEEI 211730Z 2118/2218 VRB02KT 9999 SCT009 BKN025 BECMG 2200/2202 17006KT

Værobservasjoner og værvarsel for over 4000 flyplasser (METAR- og TAF-rapporter).

Tilgjengelige stasjoner er representert av de røde og gule prikkene på kartet.

Hold musepekeren over prikken for å se navnet på stasjonen.

Klikk så for å se værobservasjoner og -varsler.

For å forandre kartet kan du klikke på den grønne knappen med svart kryss for å zoome inn, på den grønne knappen med strek for å zoome ut, eller på de grønne pilene for å se tilstøtende kart.


METAR-TAF: